Minton, Canada
Current Conditions -  °F | °C
As of 4:15 PM on Wednesday 28 Jan 2015 (Local Time) from KD50 Reporting Station
Overcast Overcast  
Wind Chill: -9°   Ceiling: 700
Heat Index: -2°   Visibility: 8mi
Dew Point: -2°   Wind: 20mph
Humidity: 100%   Direction: 320°NW
Pressure: 30.09"   Gusts: 26mph
Location:  49.17°N, 104.58°W
Report Text: KD50 282215Z AUTO 32017G23KT 8SM OVC007 M02/M02 A3009 RMK AO2
Loading
Personal Weather Stations






























Interactive Weather Map New forecast layout! Learn more

10-Day Weather Forecast

Advertisements
Track Severe Weather on mobile